Time;durP1;ratioP1;P1;durP2;ratioP2;P2;SDS_P1;SDS_P2;PMS_P1;PMS_P2;Temp;Humidity;BMP_temperature;BMP_pressure;BME280_temperature;BME280_humidity;BME280_pressure;Samples;Min_cycle;Max_cycle;Signal;HPM_P1;HPM_P2
2021/04/28 00:01:31;;;;;;;12.77;7.40;;;;;;;16.30;31.60;99897.81;5052468;28;20380;-66
2021/04/28 00:03:58;;;;;;;12.25;7.78;;;;;;;16.21;32.41;99900.03;5052803;28;20041;-67
2021/04/28 00:10:51;;;;;;;16.58;8.07;;;;;;;16.21;33.75;99889.75;5052217;28;20049;-66
2021/04/28 00:13:18;;;;;;;15.60;8.63;;;;;;;15.72;34.00;99877.72;5051173;28;20049;-68
2021/04/28 00:15:49;;;;;;;15.43;8.30;;;;;;;15.86;32.35;99874.41;5051787;28;20056;-69
2021/04/28 00:18:17;;;;;;;14.02;7.38;;;;;;;15.88;32.68;99880.38;5033745;28;20061;-68
2021/04/28 00:20:45;;;;;;;13.23;7.47;;;;;;;15.99;32.56;99873.84;5051050;28;20056;-68
2021/04/28 00:27:50;;;;;;;13.23;7.65;;;;;;;15.86;32.18;99872.44;5052013;28;20056;-68
2021/04/28 00:30:18;;;;;;;17.15;7.55;;;;;;;15.82;31.69;99870.75;5034558;28;20049;-67
2021/04/28 00:32:45;;;;;;;12.07;8.00;;;;;;;15.83;32.66;99867.59;5052151;28;20141;-66
2021/04/28 00:35:14;;;;;;;14.32;8.23;;;;;;;15.94;33.27;99874.16;5017229;28;20052;-67
2021/04/28 00:37:41;;;;;;;14.25;7.53;;;;;;;15.28;34.27;99863.34;5034163;28;20049;-67
2021/04/28 00:40:14;;;;;;;16.35;7.45;;;;;;;15.42;34.51;99866.44;5050404;28;20062;-67
2021/04/28 00:42:43;;;;;;;15.55;7.53;;;;;;;15.48;36.28;99866.94;5051770;28;20049;-68
2021/04/28 00:45:12;;;;;;;14.15;7.85;;;;;;;15.46;35.70;99863.72;5051255;28;20053;-68
2021/04/28 00:47:38;;;;;;;11.68;6.90;;;;;;;15.45;36.03;99867.66;5051259;28;20053;-67
2021/04/28 00:50:08;;;;;;;12.07;7.65;;;;;;;15.51;35.97;99853.13;5051622;28;20053;-68
2021/04/28 00:52:35;;;;;;;17.67;7.60;;;;;;;15.61;36.72;99858.09;5033883;28;20090;-67
2021/04/28 00:55:04;;;;;;;12.07;6.57;;;;;;;15.43;36.67;99862.47;5034453;28;20045;-67
2021/04/28 00:57:31;;;;;;;12.02;7.38;;;;;;;15.43;36.93;99865.25;5033903;28;20045;-66
2021/04/28 00:59:59;;;;;;;11.70;6.97;;;;;;;15.51;36.96;99860.66;5051841;28;20052;-68
2021/04/28 01:02:26;;;;;;;14.05;7.20;;;;;;;15.69;36.87;99850.69;5033417;28;20048;-68
2021/04/28 01:04:54;;;;;;;12.25;7.32;;;;;;;15.60;37.14;99850.91;5051731;28;20045;-66
2021/04/28 01:07:21;;;;;;;16.88;7.50;;;;;;;15.64;37.70;99843.47;5017687;28;20148;-66
2021/04/28 01:09:49;;;;;;;16.58;8.25;;;;;;;15.67;36.96;99848.25;5050633;28;20052;-68
2021/04/28 01:12:16;;;;;;;11.27;7.30;;;;;;;15.56;36.77;99852.03;5052458;28;20054;-69
2021/04/28 01:14:43;;;;;;;24.75;8.05;;;;;;;15.55;37.04;99840.09;5052404;28;20056;-67
2021/04/28 01:17:11;;;;;;;16.00;7.88;;;;;;;15.49;36.50;99832.47;5017648;28;20051;-67
2021/04/28 01:19:39;;;;;;;11.85;8.13;;;;;;;14.87;37.76;99843.81;5033865;28;20548;-67
2021/04/28 01:22:09;;;;;;;13.38;8.32;;;;;;;15.07;38.27;99839.88;5051527;28;20044;-68
2021/04/28 01:24:36;;;;;;;14.35;8.20;;;;;;;15.14;36.89;99824.19;5033524;28;20101;-66
2021/04/28 01:27:17;;;;;;;12.75;8.02;;;;;;;15.05;37.22;99831.13;5050962;28;20053;-69
2021/04/28 01:29:45;;;;;;;13.30;8.32;;;;;;;15.16;38.11;99826.59;5033685;28;20053;-67
2021/04/28 01:32:14;;;;;;;12.48;8.20;;;;;;;14.87;38.24;99827.97;5017589;28;20395;-68
2021/04/28 01:34:42;;;;;;;14.80;7.72;;;;;;;14.68;38.18;99831.53;5017590;28;20351;-68
2021/04/28 01:41:41;;;;;;;15.48;8.05;;;;;;;14.97;37.96;99832.97;5050918;28;20045;-66
2021/04/28 01:44:10;;;;;;;16.92;8.15;;;;;;;15.16;38.17;99827.41;5032496;28;20064;-67
2021/04/28 01:46:40;;;;;;;15.50;7.82;;;;;;;14.86;37.92;99826.38;5017158;28;20068;-68
2021/04/28 01:49:07;;;;;;;16.23;7.85;;;;;;;14.85;38.33;99833.09;5032805;28;20049;-67
2021/04/28 01:51:35;;;;;;;15.57;8.15;;;;;;;14.73;38.22;99827.69;5035684;28;20041;-69
2021/04/28 01:58:53;;;;;;;14.45;8.15;;;;;;;15.04;39.37;99832.31;5037343;28;20048;-69
2021/04/28 02:01:44;;;;;;;15.85;8.13;;;;;;;14.86;39.15;99826.38;5052456;28;20064;-69
2021/04/28 02:04:14;;;;;;;17.00;8.73;;;;;;;14.78;39.54;99832.94;5053900;28;20075;-69
2021/04/28 02:06:42;;;;;;;12.25;7.82;;;;;;;14.66;39.41;99830.31;5053403;28;20312;-68
2021/04/28 02:13:43;;;;;;;14.80;8.15;;;;;;;14.97;40.29;99821.88;5053612;28;20048;-67
2021/04/28 02:16:22;;;;;;;20.08;8.77;;;;;;;15.09;39.31;99820.91;5036535;28;20514;-68
2021/04/28 02:18:49;;;;;;;19.45;8.20;;;;;;;15.04;39.29;99818.44;5053367;28;20057;-67
2021/04/28 02:21:17;;;;;;;14.27;8.40;;;;;;;14.85;38.74;99816.47;5036468;28;20044;-69
2021/04/28 02:28:34;;;;;;;14.68;7.82;;;;;;;14.60;39.83;99815.09;5055009;28;20044;-68
2021/04/28 02:31:03;;;;;;;;;;;;;;;14.68;40.77;99816.06;5054445;28;20066;-68
2021/04/28 02:33:36;;;;;;;15.38;8.07;;;;;;;14.79;40.67;99815.13;5054321;28;20028;-68
2021/04/28 02:36:42;;;;;;;12.50;7.57;;;;;;;14.50;40.34;99827.56;5010049;28;20122;-69
2021/04/28 02:39:54;;;;;;;14.68;7.90;;;;;;;14.58;41.02;99809.94;5054707;28;20044;-69
2021/04/28 02:42:22;;;;;;;15.02;7.97;;;;;;;14.51;41.13;99811.72;5053451;28;20037;-68
2021/04/28 02:44:53;;;;;;;15.07;8.48;;;;;;;14.48;40.62;99813.28;5053965;28;20389;-68
2021/04/28 02:47:21;;;;;;;14.85;8.48;;;;;;;14.51;41.03;99812.53;5053105;28;20400;-67
2021/04/28 02:49:52;;;;;;;14.40;9.02;;;;;;;13.96;40.45;99811.97;5037274;28;20044;-70
2021/04/28 02:52:39;;;;;;;25.38;8.80;;;;;;;13.70;42.96;99809.72;5039003;28;20473;-69
2021/04/28 02:55:06;;;;;;;17.33;9.07;;;;;;;13.58;41.33;99807.81;5019915;28;20534;-69
2021/04/28 02:57:36;;;;;;;;;;;;;;;13.80;41.49;99800.88;5053589;28;20496;-68
2021/04/28 03:00:07;;;;;;;18.75;8.75;;;;;;;13.93;42.23;99813.47;5054293;28;19920;-66
2021/04/28 03:02:36;;;;;;;15.88;8.50;;;;;;;14.17;41.12;99804.19;5035468;28;20045;-68
2021/04/28 03:05:06;;;;;;;19.15;8.93;;;;;;;14.09;40.51;99799.59;5035854;28;20548;-68
2021/04/28 03:07:58;;;;;;;15.82;8.23;;;;;;;14.31;41.59;99804.53;5043006;28;20049;-68
2021/04/28 03:10:25;;;;;;;15.95;8.20;;;;;;;14.32;41.90;99804.19;5053368;28;20049;-68
2021/04/28 03:12:53;;;;;;;15.25;9.10;;;;;;;14.19;40.30;99799.09;5035704;28;20045;-67
2021/04/28 03:15:21;;;;;;;12.88;8.05;;;;;;;14.02;41.60;99797.47;5053750;28;20583;-69
2021/04/28 03:17:52;;;;;;;15.52;9.63;;;;;;;13.96;41.19;99787.84;5053754;28;20136;-67
2021/04/28 03:20:26;;;;;;;17.45;9.10;;;;;;;14.39;41.36;99789.69;5052887;28;20372;-70
2021/04/28 03:22:55;;;;;;;15.45;8.98;;;;;;;14.27;41.15;99779.53;5036000;28;20052;-69
2021/04/28 03:25:22;;;;;;;22.58;8.73;;;;;;;14.26;42.27;99774.34;5019193;28;20515;-68
2021/04/28 03:27:56;;;;;;;15.40;8.98;;;;;;;14.40;41.53;99778.22;5036713;28;20049;-68
2021/04/28 03:30:24;;;;;;;15.07;8.63;;;;;;;14.16;41.52;99783.16;5051980;28;20177;-68
2021/04/28 03:32:51;;;;;;;19.10;8.82;;;;;;;14.41;41.39;99776.28;5054939;28;20053;-69
2021/04/28 03:35:30;;;;;;;17.73;9.23;;;;;;;14.52;41.30;99775.34;5054104;28;20049;-68
2021/04/28 03:42:28;;;;;;;15.90;9.10;;;;;;;14.37;41.31;99775.38;4992076;28;20087;-68
2021/04/28 03:44:57;;;;;;;16.25;9.18;;;;;;;13.84;41.95;99776.88;4991506;28;20050;-69
2021/04/28 03:47:25;;;;;;;16.10;9.02;;;;;;;14.03;41.93;99779.72;4991818;28;20046;-69
2021/04/28 03:49:53;;;;;;;18.25;9.25;;;;;;;14.43;41.93;99771.19;4991869;28;20061;-65
2021/04/28 03:52:19;;;;;;;12.75;8.57;;;;;;;14.39;41.19;99771.09;4991864;28;20097;-67
2021/04/28 03:54:46;;;;;;;13.55;9.00;;;;;;;14.37;41.26;99775.38;4991586;28;20046;-68
2021/04/28 03:57:13;;;;;;;19.52;9.18;;;;;;;14.31;42.41;99766.53;4991522;28;20050;-67
2021/04/28 03:59:40;;;;;;;13.65;9.13;;;;;;;14.31;42.29;99780.41;4991723;28;20426;-67
2021/04/28 04:02:07;;;;;;;19.73;9.43;;;;;;;14.12;41.87;99779.53;4975543;28;20046;-67
2021/04/28 04:04:54;;;;;;;16.30;9.07;;;;;;;14.09;42.44;99780.22;4991809;28;20517;-68
2021/04/28 04:07:43;;;;;;;22.63;9.60;;;;;;;14.09;42.82;99778.28;4991801;28;20061;-67
2021/04/28 04:10:43;;;;;;;18.13;9.30;;;;;;;14.03;42.09;99781.69;4972002;28;20100;-67
2021/04/28 04:13:12;;;;;;;21.05;9.40;;;;;;;14.05;42.45;99787.66;4954115;28;20094;-66
2021/04/28 04:15:40;;;;;;;15.93;9.10;;;;;;;14.06;43.01;99783.72;4991332;28;20061;-67
2021/04/28 04:18:08;;;;;;;19.05;9.57;;;;;;;14.03;42.81;99784.44;4974816;28;20520;-67
2021/04/28 04:21:04;;;;;;;18.77;10.10;;;;;;;13.63;43.76;99792.94;4991657;28;20054;-68
2021/04/28 04:23:32;;;;;;;15.38;9.77;;;;;;;13.69;42.20;99791.50;4974857;28;20054;-66
2021/04/28 04:26:12;;;;;;;16.33;10.02;;;;;;;13.06;44.33;99793.34;4991379;28;20078;-67
2021/04/28 04:28:59;;;;;;;14.98;9.80;;;;;;;12.65;42.69;99790.13;4977604;28;20453;-68
2021/04/28 04:32:06;;;;;;;17.73;10.40;;;;;;;12.82;43.30;99792.59;4914103;29;20500;-66
2021/04/28 04:34:57;;;;;;;19.60;10.00;;;;;;;12.83;43.67;99797.78;4914215;29;20063;-68
2021/04/28 04:38:07;;;;;;;16.08;9.07;;;;;;;12.98;44.29;99791.53;4896078;29;20056;-70
2021/04/28 04:40:58;;;;;;;16.00;10.23;;;;;;;13.44;44.26;99785.31;4870370;29;20492;-68
2021/04/28 04:43:41;;;;;;;19.45;10.25;;;;;;;13.55;43.11;99780.88;5067391;28;20401;-69
2021/04/28 04:46:09;;;;;;;20.63;10.48;;;;;;;13.67;42.76;99787.50;5047316;28;20417;-68
2021/04/28 04:48:36;;;;;;;16.73;9.82;;;;;;;13.85;43.61;99786.78;5047136;28;20049;-68
2021/04/28 04:51:03;;;;;;;21.00;9.60;;;;;;;13.91;42.98;99784.56;5046913;28;20132;-67
2021/04/28 04:53:31;;;;;;;18.30;9.55;;;;;;;13.77;43.52;99784.19;5046436;28;20080;-68
2021/04/28 04:55:58;;;;;;;20.48;10.27;;;;;;;13.87;43.37;99786.41;5046381;28;20049;-68
2021/04/28 04:58:25;;;;;;;18.02;9.23;;;;;;;14.01;41.99;99789.53;5047820;28;20059;-67
2021/04/28 05:00:53;;;;;;;20.35;9.75;;;;;;;13.98;42.90;99790.25;5049143;28;20060;-68
2021/04/28 05:03:20;;;;;;;19.13;10.00;;;;;;;13.97;42.93;99794.16;5049266;28;20057;-68
2021/04/28 05:05:47;;;;;;;19.17;10.82;;;;;;;13.39;43.58;99793.06;5030552;28;20053;-73
2021/04/28 05:08:17;;;;;;;;;;;;;;;13.13;42.40;99799.06;5014696;28;20052;-68
2021/04/28 05:10:44;;;;;;;14.63;9.45;;;;;;;13.25;43.93;99795.47;5047349;28;19921;-67
2021/04/28 05:13:11;;;;;;;19.27;8.32;;;;;;;13.25;44.01;99792.72;5035102;28;20061;-68
2021/04/28 05:15:38;;;;;;;18.33;9.80;;;;;;;13.13;44.73;99792.75;5009822;28;20069;-66
2021/04/28 05:18:05;;;;;;;18.85;9.93;;;;;;;13.27;45.13;99793.13;5037183;28;20038;-67
2021/04/28 05:20:33;;;;;;;16.73;9.15;;;;;;;13.63;45.43;99795.72;5027121;28;20065;-67
2021/04/28 05:23:00;;;;;;;19.88;10.25;;;;;;;13.73;45.24;99800.72;5041313;28;20053;-67
2021/04/28 05:25:47;;;;;;;17.80;9.27;;;;;;;13.83;43.35;99791.06;4984150;28;20055;-68
2021/04/28 05:28:14;;;;;;;18.63;10.45;;;;;;;13.92;43.58;99791.69;4968185;28;20517;-67
2021/04/28 05:30:41;;;;;;;20.30;9.88;;;;;;;13.85;43.86;99795.09;4983629;28;20050;-71
2021/04/28 05:33:08;;;;;;;17.98;10.18;;;;;;;13.93;43.98;99790.53;4968198;28;20057;-70
2021/04/28 05:35:35;;;;;;;16.23;10.07;;;;;;;14.00;44.85;99788.72;4984496;28;20050;-69
2021/04/28 05:38:03;;;;;;;16.90;10.10;;;;;;;14.01;43.14;99792.31;4968549;28;20054;-70
2021/04/28 05:40:30;;;;;;;20.65;9.90;;;;;;;14.10;44.21;99784.63;4984516;28;20061;-67
2021/04/28 05:42:58;;;;;;;14.93;9.68;;;;;;;14.12;43.83;99782.31;4983598;28;20386;-67
2021/04/28 05:45:28;;;;;;;16.27;9.82;;;;;;;14.18;44.25;99789.16;4984898;28;20054;-68
2021/04/28 05:47:55;;;;;;;16.13;9.45;;;;;;;14.31;43.34;99785.94;4985226;28;20054;-67
2021/04/28 05:50:22;;;;;;;20.05;9.57;;;;;;;14.14;42.73;99789.06;4984725;28;20050;-67
2021/04/28 05:52:51;;;;;;;25.20;11.68;;;;;;;13.92;44.21;99786.97;4983442;28;20062;-69
2021/04/28 05:55:20;;;;;;;17.58;10.23;;;;;;;14.09;43.89;99781.03;4970717;28;20411;-66
2021/04/28 05:57:47;;;;;;;18.50;10.15;;;;;;;14.32;44.51;99770.94;4971204;28;20549;-68
2021/04/28 06:00:14;;;;;;;22.67;11.20;;;;;;;14.46;43.86;99776.00;4970804;28;20058;-69
2021/04/28 06:02:44;;;;;;;28.58;10.90;;;;;;;14.43;43.68;99776.72;4978054;28;20209;-69
2021/04/28 06:05:12;;;;;;;18.67;10.43;;;;;;;14.37;43.79;99775.38;5007688;28;20315;-69
2021/04/28 06:07:39;;;;;;;25.67;10.82;;;;;;;14.35;43.97;99770.22;5004103;28;20042;-68
2021/04/28 06:10:11;;;;;;;20.00;11.45;;;;;;;14.46;43.63;99773.22;5007721;28;20478;-68
2021/04/28 06:12:41;;;;;;;22.65;11.05;;;;;;;14.36;44.09;99768.25;4969950;28;20167;-67
2021/04/28 06:15:10;;;;;;;26.02;12.82;;;;;;;14.55;43.42;99768.28;4970654;28;20543;-67
2021/04/28 06:17:40;;;;;;;26.98;12.63;;;;;;;14.46;43.05;99770.44;4969930;28;20051;-69
2021/04/28 06:20:10;;;;;;;20.90;11.40;;;;;;;14.24;43.69;99769.13;4953948;28;20065;-70
2021/04/28 06:22:38;;;;;;;25.20;11.63;;;;;;;14.31;43.75;99769.31;4970004;28;20054;-69
2021/04/28 06:25:05;;;;;;;28.80;12.05;;;;;;;14.58;42.74;99765.59;4965439;28;20054;-71
2021/04/28 06:27:32;;;;;;;26.30;12.43;;;;;;;14.75;43.21;99764.34;4972641;28;20683;-71
2021/04/28 06:29:59;;;;;;;28.33;12.45;;;;;;;14.64;43.34;99755.03;4989715;28;20053;-69
2021/04/28 06:32:26;;;;;;;23.00;12.45;;;;;;;14.88;43.21;99756.69;4995871;28;20049;-69
2021/04/28 06:34:53;;;;;;;21.88;12.02;;;;;;;14.93;42.93;99757.22;5018167;28;20072;-70
2021/04/28 06:37:20;;;;;;;20.48;12.55;;;;;;;14.83;41.70;99760.56;5028188;28;20563;-71
2021/04/28 06:39:48;;;;;;;22.27;13.15;;;;;;;14.93;42.34;99745.31;5026381;28;20054;-70
2021/04/28 06:42:15;;;;;;;25.05;14.85;;;;;;;14.68;42.62;99748.38;5017260;28;20064;-74
2021/04/28 06:44:42;;;;;;;28.13;13.10;;;;;;;14.79;42.27;99758.88;5004521;28;20046;-71
2021/04/28 06:47:08;;;;;;;25.67;13.57;;;;;;;14.96;41.31;99755.69;5024099;28;20057;-70
2021/04/28 06:49:36;;;;;;;30.80;15.32;;;;;;;15.17;41.18;99753.31;5024739;28;20480;-70
2021/04/28 06:52:03;;;;;;;27.55;13.48;;;;;;;15.16;41.24;99751.72;5011611;28;20061;-70
2021/04/28 06:54:31;;;;;;;24.02;12.15;;;;;;;15.32;41.01;99749.66;5013543;28;20516;-71
2021/04/28 06:56:58;;;;;;;24.58;13.95;;;;;;;15.17;40.86;99751.34;5010508;28;20050;-71
2021/04/28 06:59:28;;;;;;;24.60;14.60;;;;;;;15.22;41.71;99756.59;5016780;28;20110;-70
2021/04/28 07:01:55;;;;;;;39.72;19.00;;;;;;;15.39;40.81;99753.38;5010862;28;20049;-70
2021/04/28 07:04:23;;;;;;;34.50;17.25;;;;;;;15.39;41.01;99749.78;5011058;28;20493;-70
2021/04/28 07:06:51;;;;;;;34.03;16.65;;;;;;;15.41;39.81;99761.34;5011213;28;20049;-69
2021/04/28 07:09:18;;;;;;;27.33;14.38;;;;;;;15.32;39.09;99750.47;5010418;28;20065;-71
2021/04/28 07:11:46;;;;;;;31.08;15.23;;;;;;;15.41;35.52;99745.47;5018579;28;20520;-71
2021/04/28 07:14:13;;;;;;;37.30;16.20;;;;;;;15.01;34.76;99749.84;5020344;28;20064;-72
2021/04/28 07:16:40;;;;;;;32.55;15.05;;;;;;;14.91;34.18;99742.91;5019174;28;20049;-70
2021/04/28 07:19:07;;;;;;;31.08;15.57;;;;;;;15.26;37.83;99751.91;5018312;28;20050;-70
2021/04/28 07:21:34;;;;;;;30.67;15.13;;;;;;;15.53;34.93;99745.28;5002990;28;20049;-70
2021/04/28 07:24:01;;;;;;;31.88;13.68;;;;;;;15.70;37.70;99744.00;5019666;28;20049;-70
2021/04/28 07:26:29;;;;;;;32.60;14.90;;;;;;;15.69;34.30;99742.41;5019108;28;20050;-72
2021/04/28 07:28:56;;;;;;;30.10;14.48;;;;;;;15.85;35.30;99743.06;5017914;28;20046;-70
2021/04/28 07:31:23;;;;;;;25.50;13.50;;;;;;;15.89;35.85;99746.72;5019135;28;20045;-71
2021/04/28 07:33:50;;;;;;;37.38;14.93;;;;;;;15.54;34.94;99741.38;5000853;28;20050;-71
2021/04/28 07:36:17;;;;;;;20.15;13.45;;;;;;;15.61;32.57;99738.72;5018382;28;20397;-71
2021/04/28 07:38:44;;;;;;;26.35;12.57;;;;;;;15.57;34.68;99735.06;5019540;28;20558;-72
2021/04/28 07:41:11;;;;;;;24.50;12.70;;;;;;;15.61;35.78;99741.50;5019365;28;20059;-71
2021/04/28 07:43:38;;;;;;;32.72;13.13;;;;;;;15.77;36.94;99739.38;4998583;28;20456;-71
2021/04/28 07:46:05;;;;;;;23.17;13.23;;;;;;;16.07;35.84;99733.91;4998579;28;20057;-72
2021/04/28 07:48:32;;;;;;;22.08;12.60;;;;;;;16.45;35.08;99724.53;4997000;28;20066;-71
2021/04/28 07:51:01;;;;;;;23.15;11.25;;;;;;;16.54;35.12;99716.75;4997376;28;20054;-72
2021/04/28 07:53:28;;;;;;;26.35;14.48;;;;;;;16.62;35.92;99721.22;4997042;28;20058;-73
2021/04/28 07:55:55;;;;;;;31.90;12.55;;;;;;;16.77;35.64;99717.44;4999133;28;20042;-71
2021/04/28 07:58:22;;;;;;;31.95;12.32;;;;;;;16.87;34.46;99716.75;4998877;28;20054;-72
2021/04/28 08:00:50;;;;;;;25.50;12.05;;;;;;;17.07;34.07;99715.38;4998291;28;20073;-73
2021/04/28 08:03:17;;;;;;;25.60;11.93;;;;;;;16.89;30.77;99706.84;4999206;28;20054;-71
2021/04/28 08:05:43;;;;;;;22.20;10.77;;;;;;;17.06;32.36;99710.22;4998362;28;20050;-71
2021/04/28 08:08:10;;;;;;;23.08;10.60;;;;;;;16.81;30.42;99709.94;4998881;28;20057;-72
2021/04/28 08:10:37;;;;;;;20.25;10.25;;;;;;;16.96;32.87;99708.13;4981541;28;20041;-71
2021/04/28 08:13:08;;;;;;;25.77;9.77;;;;;;;17.20;32.46;99708.41;4998218;28;20054;-71
2021/04/28 08:15:36;;;;;;;22.13;10.13;;;;;;;17.45;32.60;99705.84;4996333;28;20057;-72
2021/04/28 08:18:03;;;;;;;23.10;9.73;;;;;;;17.56;31.68;99704.78;4997406;28;20058;-71
2021/04/28 08:20:30;;;;;;;21.48;8.60;;;;;;;17.52;31.63;99708.75;4999624;28;20061;-71
2021/04/28 08:22:57;;;;;;;20.60;9.50;;;;;;;17.37;29.92;99702.19;4996447;28;20038;-70
2021/04/28 08:25:24;;;;;;;20.50;10.00;;;;;;;17.10;30.82;99699.94;4988854;28;20497;-70
2021/04/28 08:27:51;;;;;;;22.13;10.30;;;;;;;17.20;31.88;99700.03;4997824;28;20252;-69
2021/04/28 08:30:19;;;;;;;23.48;10.07;;;;;;;17.50;29.85;99695.22;4987781;28;20046;-69
2021/04/28 08:32:48;;;;;;;;;;;;;;;17.62;30.98;99696.88;4998543;28;20050;-70
2021/04/28 08:35:16;;;;;;;17.83;9.70;;;;;;;17.86;31.54;99699.06;4996980;28;19922;-71
2021/04/28 08:37:48;;;;;;;21.50;10.18;;;;;;;18.21;31.15;99685.38;4965042;28;20054;-72
2021/04/28 08:40:16;;;;;;;31.05;9.40;;;;;;;18.19;30.66;99686.94;4997675;28;20050;-70
2021/04/28 08:42:43;;;;;;;18.58;8.75;;;;;;;18.26;30.77;99685.00;4993009;28;20050;-73
2021/04/28 08:45:12;;;;;;;19.60;9.13;;;;;;;18.38;30.34;99687.47;5017931;28;20045;-71
2021/04/28 08:47:39;;;;;;;16.75;8.68;;;;;;;18.64;30.08;99686.41;5016177;28;20061;-70
2021/04/28 08:50:07;;;;;;;19.17;8.52;;;;;;;18.56;29.49;99679.22;5018150;28;20130;-71
2021/04/28 08:52:38;;;;;;;22.98;9.32;;;;;;;18.45;29.87;99670.78;5016470;28;20054;-72
2021/04/28 08:55:08;;;;;;;21.20;9.85;;;;;;;18.30;28.79;99677.47;5016730;28;20057;-72
2021/04/28 08:57:35;;;;;;;22.00;8.63;;;;;;;18.40;30.00;99673.97;4998915;28;20519;-71
2021/04/28 09:00:08;;;;;;;18.13;8.90;;;;;;;18.26;27.46;99681.41;5018291;28;20409;-70
2021/04/28 09:02:50;;;;;;;17.70;8.05;;;;;;;18.53;29.17;99672.41;5017062;28;20050;-68
2021/04/28 09:05:17;;;;;;;17.98;7.32;;;;;;;18.70;29.09;99673.69;5018035;28;20046;-69
2021/04/28 09:07:45;;;;;;;25.38;8.07;;;;;;;18.71;28.89;99664.94;5018333;28;20038;-69
2021/04/28 09:10:19;;;;;;;15.88;8.32;;;;;;;18.87;27.88;99659.81;5018592;28;20049;-69
2021/04/28 09:12:52;;;;;;;19.05;7.78;;;;;;;18.82;27.99;99654.63;5015787;28;20046;-70
2021/04/28 09:15:35;;;;;;;20.75;8.65;;;;;;;18.80;27.34;99650.59;5017527;28;20516;-69
2021/04/28 09:18:05;;;;;;;42.10;8.18;;;;;;;18.89;27.24;99653.81;5016619;28;20053;-70
2021/04/28 09:21:04;;;;;;;17.45;7.40;;;;;;;18.94;26.03;99645.06;4963857;28;20418;-71
2021/04/28 09:23:50;;;;;;;36.58;8.10;;;;;;;18.90;26.75;99647.84;4937315;28;20063;-72
2021/04/28 09:26:36;;;;;;;23.67;6.55;;;;;;;19.42;27.92;99643.56;4967989;28;20039;-67
2021/04/28 09:29:32;;;;;;;16.92;7.07;;;;;;;18.99;26.03;99639.91;4951142;28;20063;-69
2021/04/28 09:31:59;;;;;;;14.73;6.35;;;;;;;19.00;27.58;99643.50;4951283;28;20051;-70
2021/04/28 09:34:31;;;;;;;16.40;6.78;;;;;;;18.65;26.11;99640.59;4953122;28;20083;-69
2021/04/28 09:37:02;;;;;;;13.90;6.63;;;;;;;18.51;26.26;99633.00;4969167;28;20046;-69
2021/04/28 09:39:30;;;;;;;14.98;6.10;;;;;;;18.69;27.89;99631.03;4953978;28;20051;-69
2021/04/28 09:41:57;;;;;;;13.32;5.75;;;;;;;19.09;26.79;99630.75;4967108;28;20050;-69
2021/04/28 09:44:28;;;;;;;14.63;6.10;;;;;;;18.89;25.07;99629.50;4943632;28;20066;-71
2021/04/28 09:47:14;;;;;;;13.05;6.22;;;;;;;19.03;26.48;99625.94;4958999;28;20042;-70
2021/04/28 09:49:43;;;;;;;13.68;5.97;;;;;;;19.28;26.26;99624.00;4942365;28;20048;-70
2021/04/28 09:52:12;;;;;;;12.80;5.95;;;;;;;19.35;25.96;99629.63;4960101;28;20062;-70
2021/04/28 09:54:41;;;;;;;12.45;6.20;;;;;;;19.52;27.06;99619.63;4957226;28;20051;-71
2021/04/28 09:57:09;;;;;;;18.10;6.72;;;;;;;19.66;25.94;99620.44;4976623;28;20057;-72
2021/04/28 09:59:41;;;;;;;12.55;6.43;;;;;;;19.65;25.51;99616.03;4999341;28;20621;-71
2021/04/28 10:02:11;;;;;;;14.45;6.55;;;;;;;19.73;25.45;99617.63;5000307;28;20061;-75
2021/04/28 10:04:39;;;;;;;14.18;6.20;;;;;;;19.54;24.85;99615.25;5000261;28;20055;-73
2021/04/28 10:07:06;;;;;;;15.27;6.40;;;;;;;19.41;23.99;99607.66;4989440;28;20046;-73
2021/04/28 10:09:35;;;;;;;12.43;6.43;;;;;;;19.68;26.26;99611.63;4991005;28;20065;-73
2021/04/28 10:12:07;;;;;;;12.73;7.18;;;;;;;19.79;25.03;99606.81;4984379;28;20053;-71
2021/04/28 10:14:37;;;;;;;11.80;5.97;;;;;;;19.41;26.08;99610.44;4998523;28;20054;-73
2021/04/28 10:17:06;;;;;;;16.42;7.60;;;;;;;19.81;25.27;99605.22;4999282;28;20482;-74
2021/04/28 10:19:36;;;;;;;16.25;7.05;;;;;;;19.55;25.38;99608.44;4998500;28;20476;-75
2021/04/28 10:22:12;;;;;;;16.85;6.95;;;;;;;19.96;27.02;99606.78;4998982;28;20042;-73
2021/04/28 10:24:41;;;;;;;14.05;8.48;;;;;;;19.93;24.78;99606.78;4999996;28;20053;-73
2021/04/28 10:27:10;;;;;;;17.52;8.52;;;;;;;19.81;25.17;99605.22;5002130;28;20048;-74
2021/04/28 10:29:38;;;;;;;22.02;12.90;;;;;;;19.96;25.75;99604.00;4999792;28;20050;-73
2021/04/28 10:32:08;;;;;;;12.98;7.03;;;;;;;20.15;26.01;99602.75;5001477;28;20054;-74
2021/04/28 10:35:03;;;;;;;16.50;8.00;;;;;;;20.28;24.95;99603.13;5000381;28;20061;-72
2021/04/28 10:37:35;;;;;;;13.25;7.60;;;;;;;20.22;25.00;99601.97;5001557;28;20076;-76
2021/04/28 10:40:10;;;;;;;13.32;7.32;;;;;;;20.33;26.05;99597.13;4999092;28;20393;-72
2021/04/28 10:42:38;;;;;;;9.85;5.43;;;;;;;20.80;26.15;99602.09;5018713;28;20048;-71
2021/04/28 10:45:10;;;;;;;13.35;6.95;;;;;;;20.72;24.00;99592.94;5020177;28;20056;-70
2021/04/28 10:47:39;;;;;;;14.32;6.90;;;;;;;20.89;24.92;99599.63;5039806;28;20046;-71
2021/04/28 10:50:15;;;;;;;12.35;7.10;;;;;;;20.88;24.04;99592.44;5039099;28;20056;-70
2021/04/28 10:53:05;;;;;;;12.90;7.65;;;;;;;20.21;23.90;99589.97;5039740;28;20057;-75
2021/04/28 10:55:39;;;;;;;12.88;6.78;;;;;;;20.32;25.34;99584.34;5039260;28;20675;-72
2021/04/28 10:58:30;;;;;;;15.65;7.07;;;;;;;20.50;24.84;99577.47;5021078;28;20065;-71
2021/04/28 11:01:04;;;;;;;17.30;6.13;;;;;;;20.87;24.42;99580.44;5023955;28;20516;-72
2021/04/28 11:03:42;;;;;;;21.50;7.10;;;;;;;21.06;26.30;99584.75;5035302;28;20060;-71
2021/04/28 11:06:19;;;;;;;17.52;7.53;;;;;;;20.99;23.30;99582.00;5037689;28;20041;-74
2021/04/28 11:09:07;;;;;;;13.52;6.20;;;;;;;20.58;23.17;99586.59;5037607;28;20056;-71
2021/04/28 11:11:42;;;;;;;10.43;6.40;;;;;;;20.72;24.33;99580.94;5019608;28;20053;-74
2021/04/28 11:14:17;;;;;;;11.40;5.90;;;;;;;20.77;24.33;99584.09;5021451;28;20470;-72
2021/04/28 11:17:03;;;;;;;10.65;5.88;;;;;;;20.96;25.77;99566.78;5023008;28;20052;-73
2021/04/28 11:19:32;;;;;;;12.98;5.75;;;;;;;21.25;24.65;99570.22;5037334;28;20577;-72
2021/04/28 11:22:28;;;;;;;12.85;6.10;;;;;;;21.10;23.45;99572.31;5003280;28;20519;-74
2021/04/28 11:25:10;;;;;;;11.30;6.18;;;;;;;21.22;23.75;99582.22;5019704;28;20068;-73
2021/04/28 11:27:44;;;;;;;11.10;6.43;;;;;;;20.94;23.44;99576.78;5036848;28;20060;-73
2021/04/28 11:30:34;;;;;;;11.70;5.97;;;;;;;21.07;23.27;99570.34;5037303;28;20045;-73
2021/04/28 11:33:14;;;;;;;10.30;6.65;;;;;;;20.81;23.02;99570.91;5037582;28;20037;-72
2021/04/28 11:35:57;;;;;;;12.75;6.40;;;;;;;20.92;23.02;99576.41;5036880;28;20057;-73
2021/04/28 11:38:26;;;;;;;17.98;6.18;;;;;;;21.24;24.01;99574.19;5037904;28;20046;-72
2021/04/28 11:40:54;;;;;;;13.52;6.70;;;;;;;21.43;23.35;99584.84;5019523;28;20054;-69
2021/04/28 11:43:25;;;;;;;12.57;6.05;;;;;;;21.51;22.92;99572.38;5037230;28;20056;-73
2021/04/28 11:45:54;;;;;;;10.32;6.07;;;;;;;21.39;24.19;99574.88;5038306;28;20065;-72
2021/04/28 11:48:25;;;;;;;13.57;6.40;;;;;;;21.30;24.66;99575.38;5017550;28;20056;-72
2021/04/28 11:50:57;;;;;;;18.88;7.10;;;;;;;21.47;23.84;99584.81;5036441;28;20056;-69
2021/04/28 11:53:25;;;;;;;10.23;6.20;;;;;;;21.60;25.70;99580.31;5036822;28;20053;-69
2021/04/28 11:55:53;;;;;;;12.60;6.35;;;;;;;21.45;23.64;99576.81;5039801;28;20547;-69
2021/04/28 11:58:26;;;;;;;11.85;5.43;;;;;;;21.51;25.32;99577.19;5038396;28;20080;-71
2021/04/28 12:01:07;;;;;;;14.13;5.82;;;;;;;21.55;24.34;99570.31;5034461;28;20053;-70
2021/04/28 12:04:00;;;;;;;12.00;5.00;;;;;;;21.70;25.14;99583.00;5020809;28;20056;-72
2021/04/28 12:06:28;;;;;;;16.88;5.93;;;;;;;21.77;24.21;99568.13;5039024;28;20033;-71
2021/04/28 12:09:10;;;;;;;16.50;5.13;;;;;;;21.83;25.05;99578.47;5038376;28;20060;-70
2021/04/28 12:11:38;;;;;;;13.55;4.80;;;;;;;21.71;24.69;99581.78;5037508;28;20440;-70
2021/04/28 12:14:06;;;;;;;12.73;5.05;;;;;;;21.72;24.20;99574.97;5015858;28;20052;-67
2021/04/28 12:16:41;;;;;;;9.45;5.03;;;;;;;21.59;23.45;99573.88;5037448;28;20071;-67